Field WX: KFPK 241715Z AUTO 25011KT 10SM CLR 07/01 A2965 RMK AO2 T00710012 Decode METAR

YouTube! Facebook

JSN Epic is designed by JoomlaShine.com